createdAt,value
2018-09-04T00:02:08.603Z,18.40
2018-09-04T00:04:36.982Z,19.10
2018-09-04T00:07:05.391Z,18.47
2018-09-04T00:09:33.798Z,19.90
2018-09-04T00:12:02.424Z,20.77
2018-09-04T00:14:31.021Z,19.87
2018-09-04T00:16:59.258Z,20.60
2018-09-04T00:19:27.550Z,19.90
2018-09-04T00:21:56.119Z,19.40
2018-09-04T00:24:24.441Z,20.20
2018-09-04T00:26:52.633Z,19.33
2018-09-04T00:29:20.880Z,19.97
2018-09-04T00:31:49.237Z,20.03
2018-09-04T00:34:17.548Z,21.37
2018-09-04T00:36:45.983Z,20.73
2018-09-04T00:39:14.249Z,20.27
2018-09-04T00:41:42.418Z,20.40
2018-09-04T00:44:10.657Z,22.17
2018-09-04T00:46:38.902Z,21.07
2018-09-04T00:49:07.083Z,20.80
2018-09-04T00:51:35.246Z,22.30
2018-09-04T00:54:03.464Z,20.90
2018-09-04T00:56:31.966Z,21.50
2018-09-04T00:59:00.243Z,20.00
2018-09-04T01:01:28.425Z,20.03
2018-09-04T01:03:57.595Z,19.60
2018-09-04T01:06:25.908Z,20.57
2018-09-04T01:08:55.244Z,19.30
2018-09-04T01:11:23.413Z,21.10
2018-09-04T01:13:51.612Z,20.73
2018-09-04T01:16:19.890Z,19.97
2018-09-04T01:18:56.825Z,20.13
2018-09-04T01:21:25.273Z,19.13
2018-09-04T01:23:53.478Z,19.43
2018-09-04T01:26:21.729Z,19.43
2018-09-04T01:28:49.898Z,18.30
2018-09-04T01:31:18.583Z,19.20
2018-09-04T01:33:46.736Z,18.53
2018-09-04T01:36:14.936Z,19.03
2018-09-04T01:38:43.093Z,17.83
2018-09-04T01:41:11.350Z,18.23
2018-09-04T01:43:39.581Z,19.43
2018-09-04T01:46:07.821Z,19.20
2018-09-04T01:48:36.026Z,18.90
2018-09-04T01:51:04.323Z,18.97
2018-09-04T01:53:32.515Z,18.80
2018-09-04T01:56:00.737Z,18.50
2018-09-04T01:58:28.934Z,18.40
2018-09-04T02:00:57.141Z,17.27
2018-09-04T02:03:25.468Z,17.13
2018-09-04T02:05:53.693Z,17.30
2018-09-04T02:08:21.980Z,19.53
2018-09-04T02:10:50.227Z,17.90
2018-09-04T02:13:18.457Z,18.83
2018-09-04T02:15:46.731Z,17.87
2018-09-04T02:18:14.910Z,19.13
2018-09-04T02:20:43.069Z,19.77
2018-09-04T02:23:11.351Z,19.30
2018-09-04T02:25:40.321Z,18.33
2018-09-04T02:28:08.573Z,17.57
2018-09-04T02:30:36.971Z,19.83
2018-09-04T02:33:05.420Z,20.50
2018-09-04T02:35:33.747Z,19.20
2018-09-04T02:38:02.746Z,18.47
2018-09-04T02:40:30.931Z,20.07
2018-09-04T02:42:59.213Z,20.67
2018-09-04T02:45:27.398Z,18.50
2018-09-04T02:47:56.465Z,19.90
2018-09-04T02:50:25.681Z,20.47
2018-09-04T02:52:54.219Z,20.07
2018-09-04T02:55:22.433Z,19.97
2018-09-04T02:57:50.632Z,19.10
2018-09-04T03:00:19.509Z,19.90
2018-09-04T03:02:47.991Z,19.20
2018-09-04T03:05:16.194Z,20.13
2018-09-04T03:07:44.498Z,20.33
2018-09-04T03:10:12.685Z,21.07
2018-09-04T03:12:41.982Z,20.90
2018-09-04T03:15:10.462Z,20.43
2018-09-04T03:17:38.686Z,21.17
2018-09-04T03:20:06.891Z,21.03
2018-09-04T03:22:35.197Z,20.77
2018-09-04T03:25:03.513Z,21.73
2018-09-04T03:27:32.217Z,21.17
2018-09-04T03:30:00.450Z,23.33
2018-09-04T03:32:28.778Z,21.27
2018-09-04T03:34:57.238Z,22.63
2018-09-04T03:37:25.629Z,21.10
2018-09-04T03:39:53.834Z,21.23
2018-09-04T03:42:22.144Z,23.00
2018-09-04T03:44:50.277Z,22.90
2018-09-04T03:47:18.571Z,22.70
2018-09-04T03:49:46.795Z,22.93
2018-09-04T03:52:15.262Z,22.67
2018-09-04T03:54:43.543Z,23.73
2018-09-04T03:57:12.823Z,23.60
2018-09-04T03:59:41.349Z,23.83
2018-09-04T04:02:09.622Z,24.30
2018-09-04T04:04:37.854Z,23.77
2018-09-04T04:07:06.097Z,23.40
2018-09-04T04:09:34.483Z,23.80
2018-09-04T04:12:03.783Z,22.77
2018-09-04T04:14:32.249Z,23.67
2018-09-04T04:17:00.709Z,23.00
2018-09-04T04:19:28.914Z,22.03
2018-09-04T04:21:57.165Z,24.27
2018-09-04T04:24:25.587Z,22.63
2018-09-04T04:26:53.898Z,24.20
2018-09-04T04:29:22.122Z,23.53
2018-09-04T04:31:50.350Z,21.90
2018-09-04T04:34:19.216Z,21.40
2018-09-04T04:36:48.056Z,22.07
2018-09-04T04:39:16.245Z,22.80
2018-09-04T04:41:44.446Z,23.73
2018-09-04T04:44:12.650Z,23.07
2018-09-04T04:46:41.850Z,22.50
2018-09-04T04:49:10.066Z,22.70
2018-09-04T04:51:38.276Z,21.93
2018-09-04T04:54:06.482Z,20.20
2018-09-04T04:56:34.951Z,22.53
2018-09-04T04:59:04.325Z,21.97
2018-09-04T05:01:33.906Z,23.23
2018-09-04T05:04:03.178Z,22.90
2018-09-04T05:06:31.396Z,23.23
2018-09-04T05:08:59.882Z,22.30
2018-09-04T05:11:28.140Z,21.57
2018-09-04T05:13:56.434Z,22.80
2018-09-04T05:16:25.326Z,22.57
2018-09-04T05:18:53.614Z,22.37
2018-09-04T05:21:21.880Z,22.87
2018-09-04T05:23:50.090Z,23.83
2018-09-04T05:26:18.966Z,24.40
2018-09-04T05:28:47.234Z,24.80
2018-09-04T05:31:15.434Z,23.67
2018-09-04T05:33:44.958Z,23.07
2018-09-04T05:36:13.394Z,23.80
2018-09-04T05:38:41.694Z,22.63
2018-09-04T05:41:10.327Z,23.53
2018-09-04T05:43:42.038Z,25.10
2018-09-04T05:46:13.194Z,23.23
2018-09-04T05:48:41.574Z,24.93
2018-09-04T05:51:09.845Z,23.47
2018-09-04T05:53:38.114Z,23.97
2018-09-04T05:56:06.490Z,25.27
2018-09-04T05:58:35.098Z,24.17
2018-09-04T06:01:03.988Z,24.90
2018-09-04T06:03:32.897Z,24.60
2018-09-04T06:06:01.145Z,25.73
2018-09-04T06:08:29.350Z,23.93
2018-09-04T06:10:57.577Z,25.53
2018-09-04T06:13:26.822Z,25.33
2018-09-04T06:15:55.202Z,25.40
2018-09-04T06:18:23.471Z,26.97
2018-09-04T06:20:51.672Z,24.17
2018-09-04T06:23:19.893Z,26.40
2018-09-04T06:25:48.134Z,25.57
2018-09-04T06:28:16.342Z,26.67
2018-09-04T06:30:44.530Z,26.60
2018-09-04T06:33:12.817Z,25.47
2018-09-04T06:35:41.233Z,26.60
2018-09-04T06:38:09.750Z,28.60
2018-09-04T06:40:37.963Z,27.80
2018-09-04T06:43:06.165Z,27.87
2018-09-04T06:45:34.478Z,27.13
2018-09-04T06:48:03.098Z,28.30
2018-09-04T06:50:31.289Z,28.77
2018-09-04T06:52:59.491Z,28.23
2018-09-04T06:55:28.147Z,27.77
2018-09-04T06:57:56.651Z,27.63
2018-09-04T07:00:24.882Z,28.90
2018-09-04T07:02:53.102Z,28.93
2018-09-04T07:05:21.314Z,28.80
2018-09-04T07:07:49.669Z,27.73
2018-09-04T07:10:17.902Z,28.87
2018-09-04T07:12:46.123Z,30.30
2018-09-04T07:15:14.329Z,28.00
2018-09-04T07:17:42.542Z,28.03
2018-09-04T07:20:11.052Z,29.20
2018-09-04T07:22:39.730Z,29.67
2018-09-04T07:25:07.947Z,30.47
2018-09-04T07:27:36.193Z,29.97
2018-09-04T07:30:04.945Z,29.93
2018-09-04T07:32:33.306Z,30.03
2018-09-04T07:35:01.547Z,30.60
2018-09-04T07:37:29.813Z,29.77
2018-09-04T07:39:58.413Z,29.57
2018-09-04T07:42:26.788Z,29.87
2018-09-04T07:44:55.012Z,29.30
2018-09-04T07:47:23.247Z,27.63
2018-09-04T07:49:51.484Z,29.80
2018-09-04T07:52:19.737Z,29.93
2018-09-04T07:54:48.764Z,29.80
2018-09-04T07:57:17.001Z,29.20
2018-09-04T07:59:45.215Z,29.10
2018-09-04T08:02:13.425Z,29.80
2018-09-04T08:04:41.851Z,29.87
2018-09-04T08:07:10.844Z,30.10
2018-09-04T08:09:39.074Z,30.63
2018-09-04T08:12:08.152Z,29.53
2018-09-04T08:14:36.617Z,29.73
2018-09-04T08:17:05.744Z,30.30
2018-09-04T08:19:34.197Z,29.93
2018-09-04T08:22:02.788Z,30.27
2018-09-04T08:24:30.988Z,29.80
2018-09-04T08:26:59.384Z,29.97
2018-09-04T08:29:27.678Z,30.07
2018-09-04T08:31:56.182Z,30.70
2018-09-04T08:34:24.474Z,29.23
2018-09-04T08:36:52.714Z,31.13
2018-09-04T08:39:21.017Z,29.13
2018-09-04T08:41:49.635Z,30.93
2018-09-04T08:44:17.890Z,31.20
2018-09-04T08:46:46.138Z,30.57
2018-09-04T08:49:14.381Z,27.70
2018-09-04T08:51:42.829Z,30.73
2018-09-04T08:54:11.006Z,31.57
2018-09-04T08:56:39.198Z,30.93
2018-09-04T08:59:07.490Z,31.77
2018-09-04T09:01:35.698Z,31.20
2018-09-04T09:04:04.552Z,32.53
2018-09-04T09:06:33.019Z,26.73
2018-09-04T09:09:01.215Z,27.23
2018-09-04T09:11:29.438Z,29.13
2018-09-04T09:13:57.626Z,30.40
2018-09-04T09:16:27.131Z,29.87
2018-09-04T09:18:55.457Z,30.80
2018-09-04T09:21:23.657Z,29.73
2018-09-04T09:23:51.838Z,32.07
2018-09-04T09:26:20.539Z,30.63
2018-09-04T09:28:49.187Z,31.60
2018-09-04T09:31:18.210Z,30.07
2018-09-04T09:33:46.771Z,30.83
2018-09-04T09:36:14.949Z,29.00
2018-09-04T09:38:43.159Z,31.00
2018-09-04T09:41:11.745Z,30.57
2018-09-04T09:43:40.006Z,28.63
2018-09-04T09:46:08.185Z,29.57
2018-09-04T09:48:41.090Z,31.10
2018-09-04T09:51:10.186Z,29.23
2018-09-04T09:53:39.060Z,28.63
2018-09-04T09:56:07.673Z,29.93
2018-09-04T09:58:35.790Z,29.57
2018-09-04T10:01:09.814Z,29.33
2018-09-04T10:03:43.973Z,25.80
2018-09-04T10:06:12.351Z,27.30
2018-09-04T10:08:40.718Z,27.32
2018-09-04T10:11:10.386Z,27.40
2018-09-04T10:13:38.571Z,27.35
2018-09-04T10:16:06.786Z,29.40
2018-09-04T10:18:35.269Z,26.83
2018-09-04T10:21:03.499Z,28.07
2018-09-04T10:23:31.998Z,27.93
2018-09-04T10:26:00.190Z,29.80
2018-09-04T10:28:28.389Z,27.77
2018-09-04T10:30:57.738Z,29.03
2018-09-04T10:33:26.154Z,28.13
2018-09-04T10:35:54.344Z,25.52
2018-09-04T10:38:26.402Z,25.40
2018-09-04T10:40:59.749Z,26.48
2018-09-04T10:43:29.845Z,27.45
2018-09-04T10:46:04.067Z,26.95
2018-09-04T10:48:37.813Z,29.72
2018-09-04T10:51:06.303Z,29.37
2018-09-04T10:53:34.742Z,27.30
2018-09-04T10:56:03.015Z,26.30
2018-09-04T10:58:31.390Z,26.23
2018-09-04T11:00:59.803Z,25.05
2018-09-04T11:03:28.058Z,27.37
2018-09-04T11:05:56.491Z,27.25
2018-09-04T11:08:24.724Z,27.73
2018-09-04T11:10:52.969Z,27.35
2018-09-04T11:13:21.139Z,27.02
2018-09-04T11:15:49.457Z,26.80
2018-09-04T11:18:17.793Z,26.33
2018-09-04T11:20:46.010Z,27.02
2018-09-04T11:23:14.214Z,26.33
2018-09-04T11:25:42.443Z,25.95
2018-09-04T11:28:10.764Z,28.80
2018-09-04T11:30:39.054Z,25.52
2018-09-04T11:33:07.214Z,27.77
2018-09-04T11:35:35.475Z,27.37
2018-09-04T11:38:03.749Z,25.70
2018-09-04T11:40:32.099Z,26.82
2018-09-04T11:43:00.455Z,27.32
2018-09-04T11:45:28.649Z,26.85
2018-09-04T11:47:58.780Z,25.52
2018-09-04T11:50:27.387Z,23.50
2018-09-04T11:52:55.706Z,23.87
2018-09-04T11:55:24.304Z,22.48
2018-09-04T11:57:52.562Z,22.82
2018-09-04T12:00:26.490Z,22.60
2018-09-04T12:02:55.080Z,23.67
2018-09-04T12:05:23.258Z,22.60
2018-09-04T12:07:51.495Z,22.70
2018-09-04T12:10:19.810Z,24.07
2018-09-04T12:12:48.126Z,22.07
2018-09-04T12:15:16.252Z,23.55
2018-09-04T12:17:44.503Z,21.52
2018-09-04T12:20:26.700Z,21.80
2018-09-04T12:22:55.445Z,22.20
2018-09-04T12:25:24.878Z,21.68
2018-09-04T12:27:53.119Z,23.42
2018-09-04T12:30:21.362Z,20.82
2018-09-04T12:32:49.649Z,20.68
2018-09-04T12:35:17.903Z,20.12
2018-09-04T12:37:46.372Z,17.98
2018-09-04T12:40:14.611Z,20.32
2018-09-04T12:42:42.850Z,21.23
2018-09-04T12:45:11.224Z,20.43
2018-09-04T12:47:39.455Z,18.62
2018-09-04T12:50:07.870Z,18.82
2018-09-04T12:52:36.113Z,17.30
2018-09-04T12:55:04.610Z,17.37
2018-09-04T12:57:33.338Z,17.45
2018-09-04T13:00:01.534Z,18.62
2018-09-04T13:02:29.787Z,18.75
2018-09-04T13:04:57.979Z,19.85
2018-09-04T13:07:26.317Z,19.92
2018-09-04T13:09:54.874Z,18.62
2018-09-04T13:12:23.167Z,18.80
2018-09-04T13:14:51.491Z,21.42
2018-09-04T13:17:19.786Z,20.25
2018-09-04T13:19:48.059Z,21.68
2018-09-04T13:22:16.303Z,19.50
2018-09-04T13:24:44.518Z,19.92
2018-09-04T13:27:12.731Z,20.62
2018-09-04T13:29:41.119Z,20.77
2018-09-04T13:32:09.374Z,22.52
2018-09-04T13:34:37.590Z,26.17
2018-09-04T13:37:05.842Z,24.80
2018-09-04T13:39:34.095Z,21.70
2018-09-04T13:42:02.361Z,22.98
2018-09-04T13:44:30.662Z,23.73
2018-09-04T13:46:58.882Z,22.30
2018-09-04T13:49:27.216Z,21.55
2018-09-04T13:51:55.427Z,21.52
2018-09-04T13:54:23.627Z,22.55
2018-09-04T13:56:51.895Z,21.27
2018-09-04T13:59:57.870Z,21.77
2018-09-04T14:02:26.314Z,22.22
2018-09-04T14:04:54.514Z,21.12
2018-09-04T14:07:22.853Z,20.45
2018-09-04T14:09:51.035Z,19.20
2018-09-04T14:12:19.292Z,20.20
2018-09-04T14:14:47.492Z,18.83
2018-09-04T14:17:17.890Z,19.03
2018-09-04T14:19:46.093Z,20.03
2018-09-04T14:22:14.859Z,19.27
2018-09-04T14:24:43.063Z,18.90
2018-09-04T14:27:11.354Z,18.63
2018-09-04T14:29:53.964Z,18.32
2018-09-04T14:32:08.089Z,18.60
2018-09-04T14:34:36.282Z,18.65
2018-09-04T14:37:04.887Z,17.25
2018-09-04T14:39:33.314Z,17.45
2018-09-04T14:42:01.598Z,16.45
2018-09-04T14:44:29.761Z,16.90
2018-09-04T14:46:57.961Z,16.62
2018-09-04T14:49:26.253Z,18.45
2018-09-04T14:51:55.736Z,16.77
2018-09-04T14:54:23.941Z,16.45
2018-09-04T14:56:52.200Z,17.85
2018-09-04T14:59:20.366Z,16.62
2018-09-04T15:01:48.763Z,16.48
2018-09-04T15:04:16.980Z,16.30
2018-09-04T15:06:45.271Z,16.32
2018-09-04T15:09:13.651Z,15.85
2018-09-04T15:11:42.009Z,15.72
2018-09-04T15:14:10.413Z,14.93
2018-09-04T15:16:38.606Z,15.68
2018-09-04T15:19:06.841Z,15.88
2018-09-04T15:21:35.097Z,16.50
2018-09-04T15:24:03.809Z,15.15
2018-09-04T15:26:32.206Z,15.13
2018-09-04T15:29:00.414Z,15.98
2018-09-04T15:31:28.634Z,14.80
2018-09-04T15:33:56.895Z,15.83
2018-09-04T15:36:25.273Z,15.72
2018-09-04T15:38:53.443Z,15.63
2018-09-04T15:41:21.649Z,15.28
2018-09-04T15:43:50.655Z,15.08
2018-09-04T15:46:19.147Z,15.55
2018-09-04T15:48:51.593Z,15.40
2018-09-04T15:51:19.938Z,15.93
2018-09-04T15:53:48.142Z,15.78
2018-09-04T15:56:16.379Z,16.57
2018-09-04T15:58:44.611Z,16.12
2018-09-04T16:01:17.727Z,15.18
2018-09-04T16:03:45.928Z,15.25
2018-09-04T16:06:14.122Z,14.85
2018-09-04T16:08:42.576Z,15.38
2018-09-04T16:11:10.741Z,15.75
2018-09-04T16:13:38.951Z,15.38
2018-09-04T16:16:07.222Z,14.97
2018-09-04T16:18:35.381Z,16.40
2018-09-04T16:21:03.639Z,15.63
2018-09-04T16:23:31.823Z,15.23
2018-09-04T16:26:00.011Z,15.03
2018-09-04T16:28:28.186Z,13.97
2018-09-04T16:30:56.555Z,17.03
2018-09-04T16:33:24.838Z,15.43
2018-09-04T16:35:53.025Z,15.80
2018-09-04T16:38:21.195Z,15.63
2018-09-04T16:40:50.370Z,16.03
2018-09-04T16:43:18.677Z,14.47
2018-09-04T16:45:46.873Z,14.77
2018-09-04T16:48:15.081Z,14.43
2018-09-04T16:50:43.575Z,13.53
2018-09-04T16:53:11.973Z,14.20
2018-09-04T16:55:40.162Z,15.57
2018-09-04T16:58:08.411Z,14.60
2018-09-04T17:00:36.598Z,14.07
2018-09-04T17:03:04.897Z,14.10
2018-09-04T17:05:33.338Z,14.00
2018-09-04T17:08:01.614Z,15.13
2018-09-04T17:10:30.530Z,15.03
2018-09-04T17:12:58.799Z,14.37
2018-09-04T17:15:27.061Z,14.27
2018-09-04T17:17:55.347Z,14.27
2018-09-04T17:20:23.541Z,13.43
2018-09-04T17:22:51.872Z,14.33
2018-09-04T17:25:20.178Z,13.97
2018-09-04T17:27:49.055Z,14.33
2018-09-04T17:30:17.369Z,13.93
2018-09-04T17:32:45.549Z,14.07
2018-09-04T17:35:13.775Z,13.57
2018-09-04T17:37:42.039Z,13.87
2018-09-04T17:40:10.246Z,14.07
2018-09-04T17:45:05.767Z,14.07
2018-09-04T17:47:34.408Z,14.40
2018-09-04T17:50:02.674Z,15.03
2018-09-04T17:52:31.045Z,15.30
2018-09-04T17:54:59.432Z,15.77
2018-09-04T17:57:28.042Z,14.60
2018-09-04T17:59:56.550Z,14.10
2018-09-04T18:02:25.912Z,14.30
2018-09-04T18:04:54.195Z,14.50
2018-09-04T18:07:22.524Z,14.90
2018-09-04T18:09:50.999Z,14.50
2018-09-04T18:12:19.279Z,15.53
2018-09-04T18:14:47.961Z,14.07
2018-09-04T18:17:16.343Z,15.63
2018-09-04T18:19:44.541Z,13.77
2018-09-04T18:22:12.795Z,15.13
2018-09-04T18:24:41.046Z,14.73
2018-09-04T18:27:09.323Z,15.13
2018-09-04T18:29:37.597Z,14.40
2018-09-04T18:32:05.894Z,14.60
2018-09-04T18:34:34.724Z,14.77
2018-09-04T18:37:03.143Z,15.07
2018-09-04T18:39:31.438Z,15.47
2018-09-04T18:42:00.932Z,14.93
2018-09-04T18:44:29.333Z,14.80
2018-09-04T18:46:58.122Z,15.67
2018-09-04T18:49:27.353Z,15.70
2018-09-04T18:51:55.678Z,15.17
2018-09-04T18:54:23.950Z,14.73
2018-09-04T18:56:52.146Z,14.43
2018-09-04T18:59:20.378Z,16.67
2018-09-04T19:01:48.590Z,14.87
2018-09-04T19:04:16.780Z,15.17
2018-09-04T19:06:45.020Z,15.93
2018-09-04T19:09:13.174Z,15.27
2018-09-04T19:11:41.696Z,15.23
2018-09-04T19:14:09.920Z,14.33
2018-09-04T19:16:38.144Z,15.70
2018-09-04T19:19:06.334Z,16.13
2018-09-04T19:21:34.711Z,15.07
2018-09-04T19:24:02.987Z,15.93
2018-09-04T19:26:31.258Z,15.50
2018-09-04T19:28:59.435Z,16.17
2018-09-04T19:31:27.878Z,15.53
2018-09-04T19:33:56.227Z,15.07
2018-09-04T19:36:24.434Z,15.10
2018-09-04T19:38:52.645Z,14.77
2018-09-04T19:41:20.907Z,14.87
2018-09-04T19:43:49.442Z,15.30
2018-09-04T19:46:17.892Z,14.77
2018-09-04T19:48:46.089Z,14.37
2018-09-04T19:51:14.255Z,15.47
2018-09-04T19:53:42.814Z,14.73
2018-09-04T19:56:11.613Z,14.37
2018-09-04T19:58:39.953Z,14.33
2018-09-04T20:01:08.570Z,14.67
2018-09-04T20:03:36.910Z,14.60
2018-09-04T20:06:05.438Z,14.70
2018-09-04T20:08:34.025Z,13.80
2018-09-04T20:11:02.302Z,14.23
2018-09-04T20:13:30.546Z,13.73
2018-09-04T20:15:58.700Z,13.67
2018-09-04T20:18:27.020Z,13.43
2018-09-04T20:20:55.278Z,13.87
2018-09-04T20:23:23.573Z,13.13
2018-09-04T20:25:51.841Z,13.17
2018-09-04T20:28:20.255Z,13.13
2018-09-04T20:30:48.717Z,13.13
2018-09-04T20:33:16.960Z,13.63
2018-09-04T20:35:45.663Z,13.97
2018-09-04T20:38:13.980Z,13.77
2018-09-04T20:40:42.601Z,13.50
2018-09-04T20:43:11.898Z,12.93
2018-09-04T20:45:40.253Z,13.30
2018-09-04T20:48:08.590Z,14.10
2018-09-04T20:50:36.774Z,13.63
2018-09-04T20:53:05.415Z,13.00
2018-09-04T20:55:33.622Z,12.10
2018-09-04T20:58:13.206Z,12.00
2018-09-04T21:00:53.119Z,13.20
2018-09-04T21:03:32.690Z,11.77
2018-09-04T21:06:12.117Z,12.80
2018-09-04T21:08:51.407Z,13.50
2018-09-04T21:11:19.938Z,14.40
2018-09-04T21:13:48.378Z,13.37
2018-09-04T21:16:16.596Z,12.50
2018-09-04T21:18:44.857Z,12.13
2018-09-04T21:21:13.035Z,12.90
2018-09-04T21:23:41.618Z,12.83
2018-09-04T21:26:09.849Z,12.60
2018-09-04T21:28:38.319Z,11.97
2018-09-04T21:31:06.706Z,11.60
2018-09-04T21:33:34.975Z,12.67
2018-09-04T21:36:03.169Z,11.67
2018-09-04T21:38:31.445Z,11.00
2018-09-04T21:40:59.675Z,12.10
2018-09-04T21:43:28.844Z,11.67
2018-09-04T21:45:58.531Z,12.20
2018-09-04T21:48:27.306Z,11.80
2018-09-04T21:50:56.148Z,12.10
2018-09-04T21:53:24.306Z,13.53
2018-09-04T21:55:52.509Z,14.17
2018-09-04T21:58:20.673Z,12.60
2018-09-04T22:00:48.869Z,13.90
2018-09-04T22:03:17.086Z,13.70
2018-09-04T22:05:45.313Z,14.17
2018-09-04T22:08:13.488Z,13.40
2018-09-04T22:10:42.369Z,13.57
2018-09-04T22:13:11.457Z,14.37
2018-09-04T22:15:39.675Z,12.83
2018-09-04T22:18:07.969Z,14.57
2018-09-04T22:20:36.478Z,12.80
2018-09-04T22:23:05.072Z,13.63
2018-09-04T22:25:34.023Z,13.43
2018-09-04T22:28:02.709Z,12.90
2018-09-04T22:30:30.907Z,12.37
2018-09-04T22:32:59.066Z,13.13
2018-09-04T22:35:27.381Z,13.50
2018-09-04T22:37:55.617Z,12.97
2018-09-04T22:40:23.812Z,11.93
2018-09-04T22:42:52.825Z,12.47
2018-09-04T22:45:20.986Z,11.50
2018-09-04T22:47:49.920Z,12.77
2018-09-04T22:50:23.898Z,11.50
2018-09-04T22:52:52.798Z,12.40
2018-09-04T22:55:21.010Z,11.70
2018-09-04T22:57:49.386Z,11.63
2018-09-04T23:00:17.781Z,11.97
2018-09-04T23:02:46.003Z,12.27
2018-09-04T23:05:14.448Z,13.07
2018-09-04T23:07:42.906Z,12.73
2018-09-04T23:10:11.270Z,12.23
2018-09-04T23:12:39.437Z,12.07
2018-09-04T23:15:07.689Z,11.77
2018-09-04T23:17:35.958Z,12.17
2018-09-04T23:20:04.845Z,12.20
2018-09-04T23:22:33.700Z,11.93
2018-09-04T23:25:01.915Z,12.63
2018-09-04T23:27:30.171Z,14.07
2018-09-04T23:29:58.478Z,13.90
2018-09-04T23:32:26.760Z,13.87
2018-09-04T23:34:54.955Z,14.30
2018-09-04T23:37:23.110Z,13.87
2018-09-04T23:39:51.290Z,12.87
2018-09-04T23:42:20.385Z,13.17
2018-09-04T23:44:48.649Z,13.90
2018-09-04T23:47:16.858Z,13.10
2018-09-04T23:49:45.055Z,12.17
2018-09-04T23:52:13.291Z,13.77
2018-09-04T23:54:41.611Z,13.77
2018-09-04T23:57:09.884Z,13.07
2018-09-04T23:59:38.289Z,12.80
